Time;durP1;ratioP1;P1;durP2;ratioP2;P2;SDS_P1;SDS_P2;PMS_P1;PMS_P2;Temp;Humidity;BMP_temperature;BMP_pressure;BME280_temperature;BME280_humidity;BME280_pressure;Samples;Min_cycle;Max_cycle;Signal;HPM_P1;HPM_P2
2023/07/04 00:01:00;;;;;;;9.13;4.97;;;;;;;17.86;71.66;99205.94;5091936;28;20028;-80
2023/07/04 00:03:28;;;;;;;6.65;4.60;;;;;;;17.91;71.38;99230.94;5091921;28;20107;-80
2023/07/04 00:05:55;;;;;;;9.02;4.70;;;;;;;18.01;71.92;99257.34;5091822;28;20025;-80
2023/07/04 00:08:26;;;;;;;8.82;5.05;;;;;;;17.91;71.91;99252.03;5091728;28;20640;-80
2023/07/04 00:10:52;;;;;;;9.35;4.90;;;;;;;17.79;72.37;99244.31;5091848;28;20024;-80
2023/07/04 00:13:18;;;;;;;9.43;5.88;;;;;;;17.77;72.64;99256.75;5091693;28;20099;-80
2023/07/04 00:15:49;;;;;;;9.25;5.18;;;;;;;17.63;73.34;99250.81;5091598;28;20480;-80
2023/07/04 00:18:15;;;;;;;8.13;5.23;;;;;;;17.56;73.69;99244.34;5091351;28;20086;-80
2023/07/04 00:20:41;;;;;;;10.18;5.45;;;;;;;17.50;73.72;99241.41;5093924;28;20031;-80
2023/07/04 00:23:06;;;;;;;9.23;5.50;;;;;;;17.42;73.66;99240.22;5095357;28;20038;-80
2023/07/04 00:25:34;;;;;;;7.55;5.03;;;;;;;17.36;74.13;99239.88;5095355;28;20025;-80
2023/07/04 00:28:05;;;;;;;10.93;5.28;;;;;;;17.30;74.39;99241.22;5095430;28;20068;-80
2023/07/04 00:30:33;;;;;;;11.23;5.65;;;;;;;17.40;74.83;99265.00;5095023;28;20032;-80
2023/07/04 00:32:59;;;;;;;12.93;6.30;;;;;;;17.35;75.17;99270.63;5095026;28;20043;-80
2023/07/04 00:35:24;;;;;;;7.75;4.97;;;;;;;17.25;75.47;99260.97;5094916;28;20040;-80
2023/07/04 00:37:49;;;;;;;10.98;5.70;;;;;;;17.20;75.45;99272.72;5095509;28;20028;-80
2023/07/04 00:40:15;;;;;;;9.93;6.10;;;;;;;17.03;75.72;99244.28;5094907;28;20501;-80
2023/07/04 00:42:41;;;;;;;12.30;6.18;;;;;;;17.22;75.95;99275.22;5095083;28;20131;-80
2023/07/04 00:45:20;;;;;;;9.07;6.05;;;;;;;17.18;76.32;99282.50;5094923;28;20039;-80
2023/07/04 00:47:54;;;;;;;10.43;6.07;;;;;;;17.01;76.73;99255.88;5095027;28;20035;-80
2023/07/04 00:50:25;;;;;;;13.18;6.57;;;;;;;17.06;77.28;99275.59;5095088;28;20028;-80
2023/07/04 00:52:53;;;;;;;11.98;6.93;;;;;;;16.98;77.37;99269.25;5094776;28;20103;-80
2023/07/04 00:55:19;;;;;;;14.95;6.63;;;;;;;16.82;77.97;99253.88;5094575;28;20182;-80
2023/07/04 00:57:47;;;;;;;11.52;6.03;;;;;;;16.94;78.00;99273.97;5094763;28;20024;-80
2023/07/04 01:00:18;;;;;;;13.02;6.63;;;;;;;16.83;78.79;99269.53;5094646;28;20036;-80
2023/07/04 01:02:45;;;;;;;12.30;6.55;;;;;;;16.74;78.92;99249.22;5094576;28;20472;-80
2023/07/04 01:05:14;;;;;;;15.57;7.72;;;;;;;16.80;79.31;99264.50;5094414;28;20035;-80
2023/07/04 01:08:07;;;;;;;11.30;6.95;;;;;;;16.79;80.00;99273.34;5094858;28;20040;-80
2023/07/04 01:10:36;;;;;;;11.30;6.13;;;;;;;16.65;80.14;99250.75;5094255;28;20056;-80
2023/07/04 01:13:02;;;;;;;10.75;7.25;;;;;;;16.60;80.45;99244.16;5094402;28;20042;-80
2023/07/04 01:15:29;;;;;;;9.65;6.45;;;;;;;16.52;81.17;99257.91;5094448;28;20020;-80
2023/07/04 01:17:56;;;;;;;11.52;7.32;;;;;;;16.56;81.15;99256.72;5094337;28;20404;-80
2023/07/04 01:20:22;;;;;;;13.00;7.85;;;;;;;16.60;81.34;99265.19;5094106;28;20031;-80
2023/07/04 01:23:17;;;;;;;14.60;7.93;;;;;;;16.58;81.71;99265.31;5094172;28;20032;-80
2023/07/04 01:26:19;;;;;;;9.65;6.43;;;;;;;16.53;81.98;99262.22;5094538;28;20027;-80
2023/07/04 01:28:46;;;;;;;13.02;7.50;;;;;;;16.47;82.03;99260.03;5094229;28;20472;-79
2023/07/04 01:31:12;;;;;;;13.05;7.68;;;;;;;16.30;82.05;99234.22;5093188;28;20081;-80
2023/07/04 01:33:40;;;;;;;12.70;7.90;;;;;;;16.38;82.33;99266.84;5094146;28;20024;-80
2023/07/04 01:36:08;;;;;;;12.48;7.80;;;;;;;16.31;82.46;99262.19;5093874;28;20051;-80
2023/07/04 01:38:34;;;;;;;13.65;8.10;;;;;;;16.17;83.47;99239.56;5093780;28;20055;-79
2023/07/04 01:41:00;;;;;;;11.13;7.55;;;;;;;16.20;83.86;99249.84;5093940;28;20400;-80
2023/07/04 01:43:26;;;;;;;13.15;8.52;;;;;;;16.26;84.85;99266.94;5093494;28;20020;-79
2023/07/04 01:45:51;;;;;;;12.90;9.10;;;;;;;16.21;85.34;99270.75;5093687;28;20361;-80
2023/07/04 01:48:17;;;;;;;15.40;8.10;;;;;;;16.07;85.89;99262.25;5093660;28;20030;-80
2023/07/04 01:50:43;;;;;;;13.40;8.02;;;;;;;16.01;85.95;99255.66;5093830;28;20038;-80
2023/07/04 01:53:08;;;;;;;15.02;8.45;;;;;;;15.94;85.62;99236.91;5093753;28;20483;-80
2023/07/04 01:55:34;;;;;;;12.32;8.20;;;;;;;16.09;85.45;99270.84;5093716;28;20148;-80
2023/07/04 01:58:00;;;;;;;14.80;7.68;;;;;;;15.92;85.51;99251.09;5093798;28;20016;-80
2023/07/04 02:00:26;;;;;;;14.30;8.40;;;;;;;15.82;86.69;99243.06;5093285;28;20087;-79
2023/07/04 02:02:51;;;;;;;14.15;8.30;;;;;;;15.87;86.63;99259.31;5093722;28;20479;-80
2023/07/04 02:05:19;;;;;;;17.52;8.57;;;;;;;15.80;86.48;99249.38;5093271;28;20435;-80
2023/07/04 02:07:45;;;;;;;16.35;8.60;;;;;;;15.91;86.57;99268.66;5093501;28;20113;-80
2023/07/04 02:10:11;;;;;;;12.80;8.18;;;;;;;15.77;86.84;99258.34;5093246;28;20035;-80
2023/07/04 02:12:36;;;;;;;12.88;8.75;;;;;;;15.68;86.95;99251.16;5092998;28;20110;-79
2023/07/04 02:15:02;;;;;;;12.90;8.07;;;;;;;15.68;87.17;99251.16;5093181;28;20055;-80
2023/07/04 02:17:27;;;;;;;14.55;8.43;;;;;;;15.76;87.29;99258.44;5093109;28;20505;-80
2023/07/04 02:19:52;;;;;;;16.23;8.10;;;;;;;15.75;87.40;99267.28;5093321;28;20035;-79
2023/07/04 02:22:17;;;;;;;17.52;8.32;;;;;;;15.65;87.81;99256.63;5092863;28;20020;-80
2023/07/04 02:24:43;;;;;;;14.43;8.35;;;;;;;15.66;87.78;99267.00;5093186;28;20035;-80
2023/07/04 02:27:08;;;;;;;17.90;8.65;;;;;;;15.51;88.13;99238.41;5093065;28;20028;-79
2023/07/04 02:29:35;;;;;;;13.50;8.07;;;;;;;15.45;87.98;99242.31;5092735;28;20032;-80
2023/07/04 02:32:00;;;;;;;12.93;8.80;;;;;;;15.48;88.34;99247.34;5093230;28;20111;-80
2023/07/04 02:34:25;;;;;;;14.43;7.75;;;;;;;15.50;87.98;99249.84;5092743;28;20120;-79
2023/07/04 02:36:51;;;;;;;13.05;7.90;;;;;;;15.34;88.53;99229.16;5092853;28;20059;-80
2023/07/04 02:39:16;;;;;;;16.30;8.15;;;;;;;15.47;88.79;99251.75;5092697;28;20024;-79
2023/07/04 02:41:41;;;;;;;13.50;8.30;;;;;;;15.48;88.90;99247.34;5092887;28;20028;-79
2023/07/04 02:44:07;;;;;;;14.05;8.73;;;;;;;15.60;89.21;99267.44;5092641;28;20020;-80
2023/07/04 02:46:32;;;;;;;13.55;8.35;;;;;;;15.46;89.32;99249.22;5092582;28;20478;-79
2023/07/04 02:48:58;;;;;;;13.48;7.72;;;;;;;15.45;89.29;99255.41;5092892;28;20035;-80
2023/07/04 02:51:23;;;;;;;10.98;7.53;;;;;;;15.53;89.19;99268.00;5092862;28;20381;-80
2023/07/04 02:53:48;;;;;;;12.52;8.43;;;;;;;15.42;89.57;99248.63;5092697;28;20119;-80
2023/07/04 02:56:14;;;;;;;12.75;8.57;;;;;;;15.52;89.86;99261.06;5092433;28;20024;-79
2023/07/04 02:58:39;;;;;;;13.23;8.32;;;;;;;15.52;89.86;99267.16;5092184;28;20031;-80
2023/07/04 03:01:05;;;;;;;12.50;8.00;;;;;;;15.36;90.17;99238.56;5092374;28;20024;-80
2023/07/04 03:03:31;;;;;;;20.75;8.82;;;;;;;15.18;90.26;99227.63;5092211;28;20028;-80
2023/07/04 03:05:56;;;;;;;15.15;8.52;;;;;;;15.28;90.31;99240.91;5079711;28;20066;-80
2023/07/04 03:08:22;;;;;;;17.00;8.63;;;;;;;15.41;90.42;99257.44;5071911;28;20060;-80
2023/07/04 03:10:47;;;;;;;13.20;8.43;;;;;;;15.43;90.71;99263.41;5072145;28;20572;-80
2023/07/04 03:13:13;;;;;;;15.98;8.30;;;;;;;15.37;90.71;99245.47;5072281;28;20020;-80
2023/07/04 03:15:38;;;;;;;14.85;8.23;;;;;;;15.50;90.93;99265.59;5072033;28;20387;-79
2023/07/04 03:18:03;;;;;;;13.88;8.10;;;;;;;15.37;90.92;99236.78;5072536;28;20036;-79
2023/07/04 03:20:28;;;;;;;15.90;9.20;;;;;;;15.38;90.76;99233.19;5072069;28;20028;-80
2023/07/04 03:22:54;;;;;;;16.98;8.93;;;;;;;15.56;91.09;99262.53;5072059;28;20049;-79
2023/07/04 03:25:19;;;;;;;13.35;7.68;;;;;;;15.42;90.81;99242.50;5071806;28;20082;-80
2023/07/04 03:27:45;;;;;;;13.95;8.30;;;;;;;15.49;90.83;99246.38;5071920;28;20024;-80
2023/07/04 03:30:11;;;;;;;17.48;8.45;;;;;;;15.58;91.00;99260.59;5071838;28;20060;-80
2023/07/04 03:32:37;;;;;;;13.88;8.88;;;;;;;15.53;90.98;99249.63;5072020;28;20536;-79
2023/07/04 03:35:03;;;;;;;15.43;8.52;;;;;;;15.52;91.05;99243.53;5071728;28;20070;-80
2023/07/04 03:37:30;;;;;;;14.93;8.40;;;;;;;15.67;91.71;99267.84;5071707;28;20029;-79
2023/07/04 03:39:59;;;;;;;12.82;8.50;;;;;;;15.64;91.39;99247.03;5071895;28;20195;-80
2023/07/04 03:42:25;;;;;;;14.15;8.02;;;;;;;15.82;91.59;99274.59;5071803;28;20100;-80
2023/07/04 03:44:51;;;;;;;14.27;8.40;;;;;;;15.81;92.34;99277.34;5072036;28;20124;-80
2023/07/04 03:47:17;;;;;;;16.55;8.13;;;;;;;15.85;92.06;99269.13;5072125;28;20070;-80
2023/07/04 03:49:42;;;;;;;18.25;9.60;;;;;;;15.95;91.66;99272.72;5071776;28;20033;-80
2023/07/04 03:52:08;;;;;;;18.90;9.23;;;;;;;16.01;91.18;99265.31;5071898;28;20021;-80
2023/07/04 03:54:33;;;;;;;13.43;8.95;;;;;;;16.12;91.06;99268.00;5071984;28;20032;-80
2023/07/04 03:56:59;;;;;;;13.27;8.55;;;;;;;16.10;91.17;99273.38;5075616;28;20476;-80
2023/07/04 03:59:25;;;;;;;12.75;8.75;;;;;;;16.11;91.23;99259.28;5075531;28;20029;-80
2023/07/04 04:01:50;;;;;;;9.77;7.20;;;;;;;16.14;91.13;99255.59;5075732;28;20021;-80
2023/07/04 04:04:15;;;;;;;16.67;8.48;;;;;;;16.45;90.94;99280.34;5075909;28;20031;-80
2023/07/04 04:06:41;;;;;;;15.15;8.63;;;;;;;16.54;90.19;99290.16;5075428;28;20020;-80
2023/07/04 04:09:06;;;;;;;11.35;7.20;;;;;;;16.63;90.16;99291.25;5075422;28;20086;-80
2023/07/04 04:11:32;;;;;;;14.93;7.97;;;;;;;16.65;88.91;99258.63;5075093;28;20032;-80
2023/07/04 04:13:57;;;;;;;16.15;8.40;;;;;;;16.87;88.03;99263.06;5075497;28;20086;-80
2023/07/04 04:16:23;;;;;;;14.18;7.63;;;;;;;17.17;87.04;99277.38;5075184;28;20020;-80
2023/07/04 04:18:51;;;;;;;12.88;7.47;;;;;;;17.49;85.61;99277.44;5075210;28;20029;-80
2023/07/04 04:21:16;;;;;;;15.95;8.65;;;;;;;17.66;84.42;99252.34;5075525;28;20043;-80
2023/07/04 04:23:42;;;;;;;14.35;8.55;;;;;;;18.28;82.06;99271.81;5075038;28;20024;-80
2023/07/04 04:26:07;;;;;;;15.90;7.85;;;;;;;18.83;80.04;99260.03;5075004;28;20017;-80
2023/07/04 04:28:33;;;;;;;14.95;7.45;;;;;;;19.96;76.68;99283.44;5074862;28;20086;-80
2023/07/04 04:30:58;;;;;;;11.55;7.63;;;;;;;21.21;71.81;99278.75;5075285;28;20033;-80
2023/07/04 04:33:25;;;;;;;12.63;7.55;;;;;;;22.30;68.56;99266.22;5074714;28;20031;-80
2023/07/04 04:35:51;;;;;;;13.93;7.85;;;;;;;23.01;65.56;99275.75;5074930;28;20047;-81
2023/07/04 04:38:16;;;;;;;15.55;8.02;;;;;;;23.15;65.76;99304.34;5074900;28;20029;-81
2023/07/04 04:40:42;;;;;;;15.60;8.25;;;;;;;22.68;66.52;99301.28;5074567;28;20035;-81
2023/07/04 04:43:07;;;;;;;11.30;7.63;;;;;;;22.29;67.66;99298.19;5075038;28;20048;-81
2023/07/04 04:45:33;;;;;;;13.07;7.68;;;;;;;22.01;67.96;99287.69;5074928;28;20040;-81
2023/07/04 04:48:01;;;;;;;16.58;8.05;;;;;;;22.06;67.74;99303.13;5074779;28;20024;-81
2023/07/04 04:50:30;;;;;;;14.68;8.23;;;;;;;22.09;67.56;99274.50;5074424;28;20033;-80
2023/07/04 04:52:57;;;;;;;12.18;7.68;;;;;;;23.11;65.51;99297.69;5074562;28;20032;-81
2023/07/04 04:55:22;;;;;;;13.27;8.02;;;;;;;24.53;62.82;99297.56;5074343;28;20392;-81
2023/07/04 04:57:48;;;;;;;13.88;7.13;;;;;;;25.43;59.34;99280.41;5074557;28;20027;-81
2023/07/04 05:00:16;;;;;;;10.60;6.95;;;;;;;25.93;57.51;99311.09;5074662;28;20407;-81
2023/07/04 05:02:41;;;;;;;11.73;7.07;;;;;;;25.45;58.02;99303.22;5074344;28;20037;-81
2023/07/04 05:05:07;;;;;;;12.85;7.05;;;;;;;24.88;59.49;99306.13;5074475;28;20020;-81
2023/07/04 05:07:33;;;;;;;11.43;6.68;;;;;;;24.47;60.79;99313.38;5074090;28;20067;-80
2023/07/04 05:09:59;;;;;;;15.98;7.53;;;;;;;24.04;60.78;99278.94;5074241;28;20056;-81
2023/07/04 05:12:25;;;;;;;12.15;7.35;;;;;;;24.07;61.04;99283.94;5074187;28;20051;-81
2023/07/04 05:14:50;;;;;;;14.65;6.15;;;;;;;24.68;60.34;99295.00;5074325;28;20032;-81
2023/07/04 05:17:16;;;;;;;12.20;6.55;;;;;;;25.60;57.72;99298.78;5074121;28;20032;-81
2023/07/04 05:19:42;;;;;;;11.05;7.13;;;;;;;26.82;55.57;99291.59;5073940;28;20472;-81
2023/07/04 05:22:08;;;;;;;11.63;7.57;;;;;;;27.36;53.94;99282.41;5074161;28;20029;-81
2023/07/04 05:24:33;;;;;;;10.55;6.30;;;;;;;27.10;54.32;99297.13;5073724;28;20483;-81
2023/07/04 05:26:58;;;;;;;14.57;6.80;;;;;;;26.35;55.65;99276.69;5074049;28;20020;-81
2023/07/04 05:29:24;;;;;;;11.63;7.03;;;;;;;26.00;56.43;99285.34;5073969;28;20029;-81
2023/07/04 05:31:49;;;;;;;11.77;6.05;;;;;;;25.68;57.66;99287.25;5073906;28;20052;-81
2023/07/04 05:34:15;;;;;;;12.20;6.70;;;;;;;25.76;58.04;99305.84;5073917;28;20446;-81
2023/07/04 05:36:41;;;;;;;10.43;6.72;;;;;;;26.12;56.74;99303.44;5073835;28;20064;-81
2023/07/04 05:39:06;;;;;;;10.52;6.45;;;;;;;27.01;55.26;99294.69;5073369;28;20486;-81
2023/07/04 05:41:34;;;;;;;11.27;6.68;;;;;;;28.12;53.21;99316.75;5073565;28;20037;-81
2023/07/04 05:44:02;;;;;;;9.38;6.60;;;;;;;27.91;53.28;99305.03;5073588;28;20028;-81
2023/07/04 05:46:28;;;;;;;10.27;5.95;;;;;;;27.21;53.93;99303.00;5073692;28;20031;-82
2023/07/04 05:48:54;;;;;;;11.02;6.50;;;;;;;26.66;54.90;99294.44;5073541;28;20017;-81
2023/07/04 05:51:20;;;;;;;9.43;6.28;;;;;;;26.45;55.65;99324.53;5073675;28;20094;-82
2023/07/04 05:53:48;;;;;;;11.45;6.13;;;;;;;26.18;56.01;99304.56;5073170;28;20485;-79
2023/07/04 05:56:16;;;;;;;12.68;6.65;;;;;;;26.01;56.37;99301.19;5073668;28;20111;-79
2023/07/04 05:58:47;;;;;;;11.50;6.32;;;;;;;25.80;56.89;99303.69;5073313;28;20024;-79
2023/07/04 06:01:17;;;;;;;11.60;6.28;;;;;;;25.88;57.58;99309.81;5073716;28;20040;-79
2023/07/04 06:03:46;;;;;;;12.05;6.13;;;;;;;25.84;57.31;99310.34;5072991;28;20164;-79
2023/07/04 06:06:28;;;;;;;9.55;6.50;;;;;;;25.95;57.50;99309.06;5073145;28;20029;-79
2023/07/04 06:08:56;;;;;;;8.63;5.53;;;;;;;25.95;57.56;99299.22;5073430;28;20111;-79
2023/07/04 06:11:24;;;;;;;8.90;5.45;;;;;;;26.13;57.23;99309.63;5072981;28;20029;-79
2023/07/04 06:13:50;;;;;;;8.93;5.00;;;;;;;26.20;56.63;99302.53;5073025;28;20054;-79
2023/07/04 06:16:15;;;;;;;9.20;5.28;;;;;;;26.56;55.98;99308.06;5073222;28;20540;-79
2023/07/04 06:18:41;;;;;;;7.85;5.35;;;;;;;26.32;56.13;99317.09;5072134;28;20020;-79
2023/07/04 06:21:25;;;;;;;9.70;5.75;;;;;;;26.66;56.62;99315.81;5073110;28;20149;-79
2023/07/04 06:23:55;;;;;;;8.77;5.90;;;;;;;26.75;55.85;99301.34;5072832;28;20111;-79
2023/07/04 06:26:21;;;;;;;9.27;5.45;;;;;;;27.10;55.38;99317.69;5073156;28;20036;-79
2023/07/04 06:28:49;;;;;;;8.15;5.43;;;;;;;27.39;55.18;99327.50;5072632;28;20486;-79
2023/07/04 06:31:16;;;;;;;7.45;5.25;;;;;;;27.60;54.68;99329.38;5072621;28;20033;-79
2023/07/04 06:33:41;;;;;;;8.60;6.05;;;;;;;28.10;54.25;99325.78;5072890;28;20025;-79
2023/07/04 06:36:09;;;;;;;11.15;5.63;;;;;;;28.78;53.32;99325.28;5072857;28;20071;-79
2023/07/04 06:38:34;;;;;;;9.00;5.50;;;;;;;29.91;51.25;99331.16;5072393;28;20024;-79
2023/07/04 06:41:01;;;;;;;7.85;5.28;;;;;;;30.61;49.39;99332.44;5072527;28;20024;-79
2023/07/04 06:43:29;;;;;;;7.72;4.97;;;;;;;31.15;49.26;99333.16;5072680;28;20024;-80
2023/07/04 06:45:55;;;;;;;7.32;4.82;;;;;;;32.26;47.96;99317.41;5072548;28;20029;-80
2023/07/04 06:48:22;;;;;;;7.43;5.10;;;;;;;33.74;45.30;99316.41;5072542;28;20032;-80
2023/07/04 06:51:07;;;;;;;6.97;4.55;;;;;;;35.27;43.88;99318.34;5072399;28;20035;-80
2023/07/04 06:53:34;;;;;;;10.07;5.68;;;;;;;36.39;41.91;99318.50;5072215;28;20515;-80
2023/07/04 06:56:07;;;;;;;7.85;5.07;;;;;;;37.14;40.95;99316.31;5072563;28;20032;-80
2023/07/04 06:58:34;;;;;;;8.70;5.10;;;;;;;38.31;40.26;99330.28;5072009;28;20029;-80
2023/07/04 07:01:02;;;;;;;7.68;4.82;;;;;;;39.23;38.99;99323.47;5072443;28;20031;-80
2023/07/04 07:03:27;;;;;;;9.15;5.82;;;;;;;39.75;38.18;99313.56;5072633;28;20052;-80
2023/07/04 07:05:53;;;;;;;8.65;4.90;;;;;;;40.48;38.07;99318.72;5072074;28;20083;-80
2023/07/04 07:08:18;;;;;;;8.52;4.68;;;;;;;41.10;37.53;99329.22;5072296;28;20024;-80
2023/07/04 07:11:00;;;;;;;7.35;4.95;;;;;;;41.55;37.06;99329.28;5071920;28;20060;-80
2023/07/04 07:13:26;;;;;;;7.18;5.05;;;;;;;41.86;36.06;99319.00;5072260;28;20027;-80
2023/07/04 07:16:03;;;;;;;5.97;4.72;;;;;;;42.36;35.40;99333.34;5072113;28;20035;-80
2023/07/04 07:18:29;;;;;;;5.30;4.80;;;;;;;42.50;35.56;99331.56;5072034;28;20480;-80
2023/07/04 07:20:58;;;;;;;6.88;4.68;;;;;;;42.77;35.24;99335.66;5071749;28;20036;-80
2023/07/04 07:23:24;;;;;;;6.65;4.43;;;;;;;42.80;34.66;99319.47;5071773;28;20029;-80
2023/07/04 07:25:57;;;;;;;5.72;3.90;;;;;;;43.05;34.08;99317.56;5072048;28;20036;-80
2023/07/04 07:28:28;;;;;;;4.75;4.30;;;;;;;43.12;33.95;99315.28;5072241;28;20039;-80
2023/07/04 07:31:07;;;;;;;4.25;3.72;;;;;;;43.42;34.00;99316.78;5074545;28;20063;-80
2023/07/04 07:33:34;;;;;;;7.30;4.50;;;;;;;43.62;34.04;99312.94;5075838;28;20476;-80
2023/07/04 07:36:08;;;;;;;4.50;4.10;;;;;;;43.92;34.02;99319.09;5076727;28;20139;-81
2023/07/04 07:38:34;;;;;;;5.90;4.43;;;;;;;44.17;33.60;99326.06;5076059;28;20098;-81
2023/07/04 07:40:59;;;;;;;4.78;4.25;;;;;;;44.22;33.76;99328.72;5076089;28;20028;-81
2023/07/04 07:43:24;;;;;;;4.15;3.70;;;;;;;44.08;33.52;99313.03;5076022;28;20029;-81
2023/07/04 07:45:50;;;;;;;4.72;4.20;;;;;;;44.03;34.01;99317.78;5075731;28;20032;-80
2023/07/04 07:48:17;;;;;;;5.80;4.43;;;;;;;44.14;33.63;99326.66;5075748;28;20027;-80
2023/07/04 07:50:42;;;;;;;5.22;4.28;;;;;;;44.19;33.17;99315.59;5075325;28;20056;-80
2023/07/04 07:53:08;;;;;;;4.45;4.05;;;;;;;44.01;33.39;99309.06;5075910;28;20169;-80
2023/07/04 07:55:33;;;;;;;6.85;4.55;;;;;;;44.00;33.61;99311.00;5075716;28;20029;-80
2023/07/04 07:57:59;;;;;;;5.35;4.65;;;;;;;43.83;33.75;99307.97;5075704;28;20064;-80
2023/07/04 08:00:24;;;;;;;5.32;4.75;;;;;;;43.82;33.60;99307.13;5075480;28;20036;-80
2023/07/04 08:02:49;;;;;;;6.28;4.45;;;;;;;43.18;34.02;99319.56;5075452;28;20029;-80
2023/07/04 08:05:15;;;;;;;5.35;4.63;;;;;;;43.16;33.93;99310.03;5075778;28;20456;-80
2023/07/04 08:07:41;;;;;;;5.53;4.72;;;;;;;43.15;33.86;99314.66;5075499;28;20487;-80
2023/07/04 08:10:06;;;;;;;4.97;4.57;;;;;;;42.53;34.41;99309.09;5075493;28;20086;-80
2023/07/04 08:12:33;;;;;;;5.88;5.30;;;;;;;42.33;33.88;99301.06;5075551;28;20025;-80
2023/07/04 08:14:58;;;;;;;5.50;5.00;;;;;;;41.81;34.70;99302.63;5075310;28;20089;-79
2023/07/04 08:17:24;;;;;;;5.20;4.45;;;;;;;41.00;35.08;99317.50;5075256;28;20631;-79
2023/07/04 08:19:49;;;;;;;6.28;5.22;;;;;;;39.57;35.94;99298.50;5075256;28;20030;-79
2023/07/04 08:22:15;;;;;;;6.70;5.43;;;;;;;38.04;37.02;99314.00;5075392;28;20100;-81
2023/07/04 08:24:40;;;;;;;6.10;5.07;;;;;;;36.20;39.20;99296.25;5074933;28;20498;-81
2023/07/04 08:27:05;;;;;;;5.63;4.93;;;;;;;35.17;40.21;99290.03;5075252;28;20023;-81
2023/07/04 08:29:31;;;;;;;5.97;5.10;;;;;;;34.26;40.97;99284.25;5075085;28;20036;-81
2023/07/04 08:31:57;;;;;;;6.32;5.10;;;;;;;33.49;42.11;99276.06;5074869;28;20060;-80
2023/07/04 08:34:23;;;;;;;6.07;5.47;;;;;;;33.13;42.75;99300.41;5074937;28;20032;-80
2023/07/04 08:36:48;;;;;;;6.75;5.30;;;;;;;32.76;43.62;99303.91;5074716;28;20048;-80
2023/07/04 08:39:13;;;;;;;5.55;4.82;;;;;;;32.15;44.06;99282.28;5074994;28;20032;-80
2023/07/04 08:41:52;;;;;;;7.60;6.07;;;;;;;32.10;44.62;99317.97;5074262;28;20082;-80
2023/07/04 08:44:23;;;;;;;7.30;6.07;;;;;;;31.60;44.63;99298.19;5074774;28;20024;-80
2023/07/04 08:46:55;;;;;;;7.28;5.78;;;;;;;31.42;45.41;99301.59;5074687;28;20071;-80
2023/07/04 08:49:34;;;;;;;6.82;6.05;;;;;;;31.10;45.56;99292.59;5074786;28;20028;-80
2023/07/04 08:52:05;;;;;;;8.35;6.20;;;;;;;30.73;46.60;99282.41;5074483;28;20055;-80
2023/07/04 08:54:32;;;;;;;6.55;5.50;;;;;;;30.59;46.47;99307.59;5074780;28;20032;-80
2023/07/04 08:57:03;;;;;;;8.18;5.85;;;;;;;30.43;46.96;99314.28;5074411;28;20040;-80
2023/07/04 08:59:40;;;;;;;8.82;6.32;;;;;;;30.14;47.60;99315.50;5074622;28;20025;-80
2023/07/04 09:02:43;;;;;;;9.55;6.45;;;;;;;29.88;47.86;99318.97;5074507;28;20033;-80
2023/07/04 09:05:59;;;;;;;8.25;6.35;;;;;;;29.69;48.78;99303.66;5073190;28;20033;-80
2023/07/04 09:08:40;;;;;;;8.27;6.75;;;;;;;29.79;48.57;99321.03;5090106;28;20488;-80
2023/07/04 09:11:11;;;;;;;8.07;6.60;;;;;;;29.71;48.79;99315.03;5093476;28;20028;-80
2023/07/04 09:13:46;;;;;;;9.57;7.45;;;;;;;29.71;49.15;99312.34;5093908;28;20036;-80
2023/07/04 09:16:18;;;;;;;10.02;8.18;;;;;;;29.65;48.46;99292.50;5094061;28;20028;-80
2023/07/04 09:18:47;;;;;;;11.18;7.65;;;;;;;29.68;48.44;99304.69;5093329;28;20044;-80
2023/07/04 09:21:14;;;;;;;11.13;8.32;;;;;;;29.68;48.18;99312.75;5060364;28;20043;-80
2023/07/04 09:23:41;;;;;;;10.80;8.60;;;;;;;29.37;48.80;99305.19;5093474;28;20044;-79
2023/07/04 09:26:10;;;;;;;11.98;9.15;;;;;;;29.28;48.50;99309.91;5093692;28;20032;-80
2023/07/04 09:28:41;;;;;;;12.05;8.88;;;;;;;29.28;49.04;99299.16;5093414;28;20039;-79
2023/07/04 09:31:13;;;;;;;9.10;7.78;;;;;;;29.38;48.89;99315.72;5093222;28;20044;-80
2023/07/04 09:33:40;;;;;;;11.25;8.82;;;;;;;29.41;48.84;99317.16;5093488;28;20032;-80
2023/07/04 09:36:08;;;;;;;8.35;7.40;;;;;;;29.34;49.11;99311.78;5093424;28;20403;-80
2023/07/04 09:39:06;;;;;;;9.48;7.72;;;;;;;29.46;49.36;99320.09;5093282;28;20036;-80
2023/07/04 09:41:36;;;;;;;10.27;7.88;;;;;;;29.40;48.79;99300.25;5013532;28;20042;-80
2023/07/04 09:44:15;;;;;;;9.07;8.10;;;;;;;29.42;49.63;99327.72;5013481;28;20042;-80
2023/07/04 09:46:48;;;;;;;8.63;7.70;;;;;;;29.27;49.69;99327.03;5033128;28;20115;-80
2023/07/04 09:49:28;;;;;;;8.82;7.60;;;;;;;29.18;50.02;99312.13;5033315;28;20052;-80
2023/07/04 09:51:56;;;;;;;9.48;8.10;;;;;;;29.14;50.61;99326.97;5032965;28;20045;-80
2023/07/04 09:54:21;;;;;;;11.13;7.90;;;;;;;28.99;49.93;99325.25;5032357;28;20052;-80
2023/07/04 09:56:47;;;;;;;9.52;8.38;;;;;;;28.78;49.83;99302.03;5033319;28;20124;-80
2023/07/04 09:59:18;;;;;;;9.60;8.45;;;;;;;28.81;50.50;99312.31;5032859;28;20033;-80
2023/07/04 10:01:46;;;;;;;11.13;8.65;;;;;;;28.69;50.27;99308.53;5032645;28;20103;-80
2023/07/04 10:04:22;;;;;;;11.13;8.55;;;;;;;28.71;50.36;99293.09;5032735;28;20522;-80
2023/07/04 10:06:50;;;;;;;10.40;7.97;;;;;;;28.66;51.31;99302.78;5032632;28;20033;-80
2023/07/04 10:09:20;;;;;;;10.95;8.55;;;;;;;28.65;51.00;99301.09;5032591;28;20448;-80
2023/07/04 10:11:48;;;;;;;11.02;8.50;;;;;;;28.73;49.98;99320.53;5030688;28;20060;-80
2023/07/04 10:14:15;;;;;;;10.75;8.98;;;;;;;28.71;50.11;99325.25;5030539;28;20136;-80
2023/07/04 10:16:47;;;;;;;9.68;8.70;;;;;;;28.72;51.47;99307.31;5051597;28;20052;-80
2023/07/04 10:19:16;;;;;;;11.50;10.30;;;;;;;28.76;50.29;99308.59;5093350;28;20016;-80
2023/07/04 10:21:52;;;;;;;12.35;11.07;;;;;;;28.91;48.98;99313.81;5093276;28;20028;-80
2023/07/04 10:24:23;;;;;;;11.55;10.35;;;;;;;28.88;49.73;99315.06;5093112;28;20055;-80
2023/07/04 10:26:54;;;;;;;;;;;;;;;28.92;49.71;99323.53;5093420;28;20426;-80
2023/07/04 10:29:32;;;;;;;12.40;10.43;;;;;;;28.97;49.84;99321.94;5092817;28;20410;-80
2023/07/04 10:32:01;;;;;;;11.73;9.73;;;;;;;29.04;49.33;99319.31;5092901;28;20024;-80
2023/07/04 10:34:28;;;;;;;11.45;9.80;;;;;;;28.97;48.68;99318.44;5093070;28;20078;-80
2023/07/04 10:36:56;;;;;;;10.52;9.23;;;;;;;29.01;48.89;99322.38;5093100;28;20472;-80
2023/07/04 10:39:22;;;;;;;12.73;9.30;;;;;;;28.88;48.93;99298.97;5092801;28;20349;-80
2023/07/04 10:42:11;;;;;;;11.05;9.80;;;;;;;28.99;50.06;99314.53;5092693;28;20031;-80
2023/07/04 10:44:41;;;;;;;11.48;9.32;;;;;;;28.83;50.44;99288.84;5092740;28;20077;-80
2023/07/04 10:47:12;;;;;;;11.77;9.32;;;;;;;28.94;49.46;99308.06;5092633;28;20020;-80
2023/07/04 10:49:44;;;;;;;11.40;9.55;;;;;;;29.01;49.36;99323.19;5092639;28;20529;-80
2023/07/04 10:52:15;;;;;;;10.57;8.90;;;;;;;29.00;49.49;99328.78;5092967;28;20024;-80
2023/07/04 10:54:40;;;;;;;;;;;;;;;28.97;50.22;99327.31;5093188;28;20039;-80
2023/07/04 10:57:13;;;;;;;9.53;8.33;;;;;;;28.95;50.09;99328.47;5092382;28;19908;-80
2023/07/04 10:59:44;;;;;;;10.10;9.10;;;;;;;28.88;49.28;99328.47;5092542;28;20278;-80
2023/07/04 11:02:12;;;;;;;15.38;11.15;;;;;;;28.76;49.51;99335.38;5092480;28;20415;-79
2023/07/04 11:04:39;;;;;;;11.60;10.00;;;;;;;28.65;49.37;99325.22;5092582;28;20020;-80
2023/07/04 11:07:25;;;;;;;14.85;9.80;;;;;;;28.60;49.51;99334.66;5092229;28;20052;-80
2023/07/04 11:09:55;;;;;;;11.73;9.80;;;;;;;28.65;49.31;99327.88;5092070;28;20103;-79
2023/07/04 11:12:26;;;;;;;11.50;10.30;;;;;;;28.57;48.65;99336.94;5092327;28;20032;-80
2023/07/04 11:14:59;;;;;;;12.60;10.07;;;;;;;28.39;48.28;99307.09;5092163;28;20099;-80
2023/07/04 11:17:27;;;;;;;10.13;8.85;;;;;;;28.27;49.68;99290.69;5091226;28;20463;-79
2023/07/04 11:20:16;;;;;;;10.95;9.63;;;;;;;28.69;48.93;99324.63;5090715;28;20434;-80
2023/07/04 11:22:54;;;;;;;10.75;9.15;;;;;;;28.76;48.65;99308.59;5092099;28;20067;-80
2023/07/04 11:25:32;;;;;;;10.80;9.45;;;;;;;28.77;48.06;99312.91;5092447;28;20228;-79
2023/07/04 11:28:26;;;;;;;11.65;10.35;;;;;;;28.78;48.13;99309.22;5091982;28;20028;-80
2023/07/04 11:30:53;;;;;;;14.43;10.75;;;;;;;28.81;47.81;99330.25;5092021;28;20429;-80
2023/07/04 11:33:54;;;;;;;14.52;11.35;;;;;;;28.77;47.66;99326.31;5092186;28;20063;-80
2023/07/04 11:36:49;;;;;;;15.27;10.05;;;;;;;28.81;48.31;99331.09;5089898;28;20051;-80